createdAt,value
2022-11-25T00:00:47.082Z,97787.28
2022-11-25T00:04:49.211Z,97786.31
2022-11-25T00:08:55.156Z,97793.25
2022-11-25T00:12:57.157Z,97789.78
2022-11-25T00:16:59.212Z,97785.19
2022-11-25T00:21:13.264Z,97776.41
2022-11-25T00:25:15.475Z,97773.69
2022-11-25T00:29:17.530Z,97769.41
2022-11-25T00:33:19.560Z,97772.03
2022-11-25T00:37:22.137Z,97764.19
2022-11-25T00:41:44.411Z,97767.56
2022-11-25T00:45:46.446Z,97769.25
2022-11-25T00:49:54.750Z,97779.66
2022-11-25T00:53:59.063Z,97781.47
2022-11-25T00:58:01.443Z,97773.47
2022-11-25T01:02:03.550Z,97771.25
2022-11-25T01:06:09.268Z,97775.31
2022-11-25T01:10:11.326Z,97779.53
2022-11-25T01:14:13.839Z,97775.19
2022-11-25T01:18:15.864Z,97776.03
2022-11-25T01:22:17.890Z,97771.75
2022-11-25T01:26:24.887Z,97768.16
2022-11-25T01:30:26.924Z,97773.22
2022-11-25T01:34:31.928Z,97778.25
2022-11-25T01:38:35.240Z,97772.84
2022-11-25T01:42:48.994Z,97772.72
2022-11-25T01:46:54.688Z,97776.28
2022-11-25T01:50:57.167Z,97777.13
2022-11-25T01:55:17.125Z,97755.47
2022-11-25T01:59:19.587Z,97755.47
2022-11-25T02:03:26.332Z,97767.63
2022-11-25T02:07:41.098Z,97762.44
2022-11-25T02:11:45.387Z,97758.94
2022-11-25T02:15:47.557Z,97752.81
2022-11-25T02:19:56.999Z,97752.72
2022-11-25T02:24:18.290Z,97755.22
2022-11-25T02:28:24.541Z,97750.88
2022-11-25T02:32:26.655Z,97752.56
2022-11-25T02:36:28.687Z,97742.91
2022-11-25T02:40:34.409Z,97745.53
2022-11-25T02:44:36.604Z,97742.94
2022-11-25T02:49:07.278Z,97742.94
2022-11-25T02:53:03.834Z,97729.06
2022-11-25T02:57:05.887Z,97743.94
2022-11-25T03:01:11.009Z,97735.38
2022-11-25T03:05:13.894Z,97732.94
2022-11-25T03:09:15.951Z,97731.47
2022-11-25T03:13:18.130Z,97738.50
2022-11-25T03:17:20.421Z,97753.41
2022-11-25T03:21:22.473Z,97749.16
2022-11-25T03:25:25.869Z,97742.41
2022-11-25T03:29:27.917Z,97751.22
2022-11-25T03:33:30.063Z,97745.94
2022-11-25T03:37:32.210Z,97733.72
2022-11-25T03:41:34.372Z,97729.25
2022-11-25T03:45:36.649Z,97729.09
2022-11-25T03:49:42.064Z,97724.47
2022-11-25T03:53:45.537Z,97736.41
2022-11-25T03:57:49.360Z,97738.88
2022-11-25T04:01:51.857Z,97740.47
2022-11-25T04:05:54.212Z,97738.59
2022-11-25T04:09:56.724Z,97723.56
2022-11-25T04:14:12.305Z,97733.81
2022-11-25T04:18:15.190Z,97726.72
2022-11-25T04:22:18.067Z,97724.91
2022-11-25T04:26:22.439Z,97721.38
2022-11-25T04:30:24.703Z,97724.00
2022-11-25T04:34:27.825Z,97730.03
2022-11-25T04:38:29.913Z,97731.75
2022-11-25T04:42:34.436Z,97736.97
2022-11-25T04:46:42.335Z,97734.22
2022-11-25T04:50:44.719Z,97725.44
2022-11-25T04:54:48.917Z,97728.75
2022-11-25T04:59:10.385Z,97718.28
2022-11-25T05:03:16.280Z,97709.38
2022-11-25T05:07:20.235Z,97716.22
2022-11-25T05:11:24.359Z,97725.69
2022-11-25T05:15:27.651Z,97727.16
2022-11-25T05:19:30.628Z,97731.38
2022-11-25T05:23:32.814Z,97733.94
2022-11-25T05:27:35.258Z,97724.97
2022-11-25T05:31:42.711Z,97723.97
2022-11-25T05:35:44.755Z,97716.00
2022-11-25T05:39:46.846Z,97728.06
2022-11-25T05:44:00.526Z,97734.28
2022-11-25T05:48:04.219Z,97743.09
2022-11-25T05:52:08.020Z,97727.31
2022-11-25T05:56:18.479Z,97734.13
2022-11-25T06:00:42.805Z,97733.19
2022-11-25T06:04:45.940Z,97732.22
2022-11-25T06:08:48.121Z,97744.31
2022-11-25T06:12:50.211Z,97745.22
2022-11-25T06:16:53.342Z,97758.94
2022-11-25T06:21:18.083Z,97767.47
2022-11-25T06:25:20.242Z,97758.84
2022-11-25T06:29:24.366Z,97761.56
2022-11-25T06:33:27.229Z,97766.06
2022-11-25T06:37:31.568Z,97761.84
2022-11-25T06:41:33.606Z,97769.72
2022-11-25T06:45:35.628Z,97755.81
2022-11-25T06:49:37.607Z,97774.03
2022-11-25T06:53:40.477Z,97785.22
2022-11-25T06:57:42.485Z,97792.22
2022-11-25T07:01:44.559Z,97783.50
2022-11-25T07:05:46.615Z,97780.25
2022-11-25T07:09:48.651Z,97789.94
2022-11-25T07:13:56.522Z,97791.63
2022-11-25T07:17:58.565Z,97782.28
2022-11-25T07:22:00.566Z,97784.34
2022-11-25T07:26:08.933Z,97785.50
2022-11-25T07:31:09.464Z,97792.56
2022-11-25T07:34:33.453Z,97793.44
2022-11-25T07:38:36.344Z,97803.00
2022-11-25T07:42:38.359Z,97805.56
2022-11-25T07:46:45.678Z,97812.38
2022-11-25T07:50:50.059Z,97818.31
2022-11-25T07:54:53.480Z,97826.59
2022-11-25T07:58:56.422Z,97818.13
2022-11-25T08:02:58.505Z,97833.00
2022-11-25T08:07:00.606Z,97830.84
2022-11-25T08:11:07.615Z,97828.94
2022-11-25T08:15:10.018Z,97832.38
2022-11-25T08:19:14.905Z,97840.25
2022-11-25T08:23:16.954Z,97844.84
2022-11-25T08:27:18.947Z,97831.03
2022-11-25T08:31:24.342Z,97819.69
2022-11-25T08:35:26.402Z,97833.59
2022-11-25T08:39:51.258Z,97835.59
2022-11-25T08:43:52.522Z,97844.50
2022-11-25T08:47:55.040Z,97853.91
2022-11-25T08:51:57.112Z,97864.34
2022-11-25T08:55:59.141Z,97867.97
2022-11-25T09:00:01.101Z,97875.63
2022-11-25T09:04:03.215Z,97869.34
2022-11-25T09:08:06.640Z,97867.31
2022-11-25T09:12:08.865Z,97874.03
2022-11-25T09:16:11.017Z,97889.50
2022-11-25T09:20:13.188Z,97883.28
2022-11-25T09:24:15.230Z,97897.69
2022-11-25T09:28:17.384Z,97895.31
2022-11-25T09:32:19.430Z,97892.72
2022-11-25T09:36:21.694Z,97906.13
2022-11-25T09:40:49.178Z,97902.31
2022-11-25T09:45:21.042Z,97914.00
2022-11-25T09:49:46.659Z,97910.66
2022-11-25T09:53:51.696Z,97911.69
2022-11-25T09:58:12.227Z,97917.41
2022-11-25T10:02:28.673Z,97912.75
2022-11-25T10:06:54.907Z,97917.88
2022-11-25T10:11:21.175Z,97928.09
2022-11-25T10:15:30.399Z,97924.97
2022-11-25T10:19:38.994Z,97932.25
2022-11-25T10:23:41.250Z,97936.66
2022-11-25T10:28:07.794Z,97935.47
2022-11-25T10:32:19.592Z,97935.94
2022-11-25T10:36:24.562Z,97940.94
2022-11-25T10:40:26.767Z,97942.63
2022-11-25T10:44:40.602Z,97945.38
2022-11-25T10:48:48.656Z,97956.53
2022-11-25T10:52:54.859Z,97954.56
2022-11-25T10:56:59.320Z,97956.28
2022-11-25T11:01:18.163Z,97963.34
2022-11-25T11:05:29.912Z,97968.31
2022-11-25T11:09:35.620Z,97977.09
2022-11-25T11:13:37.622Z,97971.84
2022-11-25T11:17:40.026Z,97982.59
2022-11-25T11:21:43.413Z,97975.19
2022-11-25T11:25:56.489Z,97990.97
2022-11-25T11:30:09.333Z,97988.22
2022-11-25T11:34:26.622Z,97990.25
2022-11-25T11:38:35.028Z,97994.72
2022-11-25T11:42:57.452Z,98000.22
2022-11-25T11:47:05.610Z,98002.59
2022-11-25T11:51:33.408Z,97999.47
2022-11-25T12:00:36.501Z,98012.75
2022-11-25T12:04:51.119Z,98006.78
2022-11-25T12:09:01.145Z,98014.06
2022-11-25T12:13:13.301Z,98020.28
2022-11-25T12:17:45.128Z,98026.63
2022-11-25T12:21:58.768Z,98027.97
2022-11-25T12:26:06.902Z,98026.25
2022-11-25T12:30:18.338Z,98031.75
2022-11-25T12:34:41.021Z,98043.94
2022-11-25T12:38:50.644Z,98051.03
2022-11-25T12:42:56.988Z,98050.47
2022-11-25T12:46:59.143Z,98051.94
2022-11-25T12:51:22.076Z,98056.53
2022-11-25T12:55:26.029Z,98062.63
2022-11-25T12:59:43.462Z,98068.72
2022-11-25T13:04:10.207Z,98075.53
2022-11-25T13:09:05.008Z,98075.22
2022-11-25T13:13:07.338Z,98085.97
2022-11-25T13:17:13.678Z,98095.88
2022-11-25T13:21:17.623Z,98088.84
2022-11-25T13:25:26.191Z,98096.13
2022-11-25T13:29:28.296Z,98099.09
2022-11-25T13:33:45.582Z,98106.28
2022-11-25T13:37:48.606Z,98106.09
2022-11-25T13:41:59.415Z,98115.41
2022-11-25T13:46:02.091Z,98118.69
2022-11-25T13:50:22.692Z,98129.19
2022-11-25T13:54:53.707Z,98130.03
2022-11-25T13:59:11.029Z,98134.41
2022-11-25T14:03:19.177Z,98139.53
2022-11-25T14:07:54.907Z,98139.53
2022-11-25T14:11:56.889Z,98137.19
2022-11-25T14:16:25.990Z,98146.47
2022-11-25T14:20:54.437Z,98154.94
2022-11-25T14:25:16.883Z,98162.97
2022-11-25T14:29:27.958Z,98162.56
2022-11-25T14:33:36.195Z,98162.22
2022-11-25T14:37:49.862Z,98169.88
2022-11-25T14:42:05.551Z,98179.06
2022-11-25T14:46:16.659Z,98190.16
2022-11-25T14:50:34.213Z,98188.81
2022-11-25T14:54:43.339Z,98199.75
2022-11-25T14:58:51.413Z,98211.34
2022-11-25T15:02:56.572Z,98202.44
2022-11-25T15:07:02.115Z,98209.50
2022-11-25T15:11:13.370Z,98208.19
2022-11-25T15:15:15.805Z,98211.59
2022-11-25T15:19:21.221Z,98210.22
2022-11-25T15:23:28.363Z,98224.16
2022-11-25T15:27:32.692Z,98218.88
2022-11-25T15:31:35.878Z,98224.84
2022-11-25T15:35:37.898Z,98233.69
2022-11-25T15:39:40.480Z,98236.13
2022-11-25T15:43:47.120Z,98246.59
2022-11-25T15:47:49.467Z,98245.94
2022-11-25T15:51:56.855Z,98256.16
2022-11-25T15:56:01.381Z,98251.53
2022-11-25T16:00:19.609Z,98258.13
2022-11-25T16:04:24.185Z,98263.00
2022-11-25T16:08:35.290Z,98264.50
2022-11-25T16:12:37.357Z,98280.50
2022-11-25T16:16:39.422Z,98277.25
2022-11-25T16:20:48.603Z,98274.47
2022-11-25T16:24:57.242Z,98278.59
2022-11-25T16:29:14.652Z,98284.25
2022-11-25T16:33:17.249Z,98289.00
2022-11-25T16:37:19.300Z,98297.03
2022-11-25T16:41:25.074Z,98310.22
2022-11-25T16:45:28.307Z,98308.69
2022-11-25T16:49:31.146Z,98320.09
2022-11-25T16:53:33.124Z,98324.59
2022-11-25T16:57:36.748Z,98336.09
2022-11-25T17:01:38.894Z,98349.44
2022-11-25T17:05:40.978Z,98353.75
2022-11-25T17:09:48.537Z,98356.25
2022-11-25T17:13:52.746Z,98364.78
2022-11-25T17:17:54.866Z,98363.63
2022-11-25T17:21:56.972Z,98368.00
2022-11-25T17:25:59.877Z,98374.66
2022-11-25T17:30:06.295Z,98380.34
2022-11-25T17:34:13.389Z,98388.88
2022-11-25T17:38:20.927Z,98390.53
2022-11-25T17:42:28.648Z,98395.53
2022-11-25T17:46:30.694Z,98399.75
2022-11-25T17:50:32.713Z,98397.91
2022-11-25T17:54:35.443Z,98412.03
2022-11-25T17:58:37.841Z,98415.56
2022-11-25T18:02:39.881Z,98425.19
2022-11-25T18:06:42.004Z,98416.81
2022-11-25T18:10:45.848Z,98428.53
2022-11-25T18:14:47.935Z,98434.13
2022-11-25T18:18:50.157Z,98446.59
2022-11-25T18:22:52.880Z,98452.03
2022-11-25T18:26:54.954Z,98459.88
2022-11-25T18:31:02.040Z,98468.34
2022-11-25T18:35:15.279Z,98474.03
2022-11-25T18:39:18.845Z,98484.75
2022-11-25T18:43:24.492Z,98501.00
2022-11-25T18:47:26.682Z,98504.34
2022-11-25T18:51:28.755Z,98507.69
2022-11-25T18:55:30.928Z,98512.84
2022-11-25T18:59:34.914Z,98524.91
2022-11-25T19:03:36.961Z,98524.81
2022-11-25T19:07:39.001Z,98532.63
2022-11-25T19:11:47.170Z,98539.59
2022-11-25T19:15:49.469Z,98536.22
2022-11-25T19:19:51.894Z,98543.25
2022-11-25T19:23:53.893Z,98546.03
2022-11-25T19:28:00.294Z,98558.38
2022-11-25T19:32:03.301Z,98561.91
2022-11-25T19:36:06.370Z,98566.47
2022-11-25T19:40:17.608Z,98571.13
2022-11-25T19:44:19.705Z,98580.03
2022-11-25T19:48:22.685Z,98587.22
2022-11-25T19:52:37.757Z,98589.16
2022-11-25T19:56:40.269Z,98591.91
2022-11-25T20:00:45.690Z,98597.31
2022-11-25T20:04:50.260Z,98606.97
2022-11-25T20:08:52.254Z,98610.47
2022-11-25T20:12:56.244Z,98614.88
2022-11-25T20:16:58.375Z,98619.25
2022-11-25T20:21:03.295Z,98625.50
2022-11-25T20:25:10.571Z,98631.66
2022-11-25T20:29:17.175Z,98636.91
2022-11-25T20:33:24.312Z,98642.28
2022-11-25T20:37:29.487Z,98656.25
2022-11-25T20:41:33.134Z,98662.44
2022-11-25T20:45:35.382Z,98671.19
2022-11-25T20:49:37.966Z,98674.69
2022-11-25T20:53:44.566Z,98673.88
2022-11-25T20:57:47.379Z,98675.72
2022-11-25T21:01:50.533Z,98686.16
2022-11-25T21:05:55.053Z,98687.94
2022-11-25T21:09:57.077Z,98694.97
2022-11-25T21:13:59.369Z,98700.19
2022-11-25T21:18:01.438Z,98700.31
2022-11-25T21:22:03.468Z,98712.56
2022-11-25T21:26:10.538Z,98713.56
2022-11-25T21:30:20.107Z,98713.56
2022-11-25T21:34:22.180Z,98723.06
2022-11-25T21:38:26.828Z,98724.88
2022-11-25T21:42:30.790Z,98720.59
2022-11-25T21:46:33.021Z,98723.31
2022-11-25T21:50:35.051Z,98736.38
2022-11-25T21:54:37.231Z,98743.31
2022-11-25T21:58:40.667Z,98738.81
2022-11-25T22:02:44.045Z,98747.56
2022-11-25T22:06:47.354Z,98741.63
2022-11-25T22:10:52.216Z,98753.84
2022-11-25T22:14:55.107Z,98752.97
2022-11-25T22:18:58.171Z,98765.19
2022-11-25T22:23:01.575Z,98768.72
2022-11-25T22:27:06.445Z,98774.84
2022-11-25T22:31:19.065Z,98771.50
2022-11-25T22:35:21.477Z,98775.03
2022-11-25T22:39:25.435Z,98786.31
2022-11-25T22:43:30.928Z,98787.81
2022-11-25T22:47:39.542Z,98790.31
2022-11-25T22:51:42.213Z,98804.06
2022-11-25T22:55:45.528Z,98812.56
2022-11-25T22:59:47.895Z,98814.09
2022-11-25T23:03:49.908Z,98802.63
2022-11-25T23:07:52.203Z,98800.81
2022-11-25T23:11:54.485Z,98811.75
2022-11-25T23:15:59.217Z,98822.91
2022-11-25T23:20:01.358Z,98827.25
2022-11-25T23:24:13.390Z,98831.53
2022-11-25T23:28:16.488Z,98837.56
2022-11-25T23:32:20.838Z,98837.53
2022-11-25T23:36:29.821Z,98843.53
2022-11-25T23:40:31.984Z,98846.94
2022-11-25T23:44:34.020Z,98834.78
2022-11-25T23:48:36.038Z,98849.66
2022-11-25T23:52:38.557Z,98857.50
2022-11-25T23:56:40.759Z,98858.41
